Time;durP1;ratioP1;P1;durP2;ratioP2;P2;SDS_P1;SDS_P2;PMS_P1;PMS_P2;Temp;Humidity;BMP_temperature;BMP_pressure;BME280_temperature;BME280_humidity;BME280_pressure;Samples;Min_cycle;Max_cycle;Signal;HPM_P1;HPM_P2
2023/09/17 00:01:38;;;;;;;5.95;4.70;;;;;;;23.43;57.48;101261.44;4997115;28;20266;-65
2023/09/17 00:04:06;;;;;;;7.07;4.40;;;;;;;23.44;57.04;101264.91;4997304;28;20061;-66
2023/09/17 00:06:31;;;;;;;6.45;4.20;;;;;;;23.41;57.21;101262.56;4997190;28;20030;-66
2023/09/17 00:08:56;;;;;;;6.13;4.70;;;;;;;23.43;57.10;101258.78;4996537;28;20386;-66
2023/09/17 00:11:22;;;;;;;6.00;4.20;;;;;;;23.42;56.95;101256.25;4997110;28;20033;-66
2023/09/17 00:13:47;;;;;;;5.82;4.28;;;;;;;23.43;57.29;101257.91;4997406;28;20030;-68
2023/09/17 00:16:12;;;;;;;5.72;4.13;;;;;;;23.42;57.47;101257.09;4997265;28;20149;-66
2023/09/17 00:18:38;;;;;;;6.68;4.30;;;;;;;23.43;56.98;101258.78;4997102;28;20390;-68
2023/09/17 00:21:06;;;;;;;6.97;4.85;;;;;;;23.42;57.27;101257.09;4997163;28;20034;-66
2023/09/17 00:23:31;;;;;;;5.60;4.28;;;;;;;23.42;57.35;101264.25;5012175;28;20026;-65
2023/09/17 00:25:56;;;;;;;6.25;4.32;;;;;;;23.42;56.83;101269.56;4996666;28;20509;-66
2023/09/17 00:28:22;;;;;;;5.93;4.05;;;;;;;23.42;57.28;101266.91;4997066;28;20037;-65
2023/09/17 00:30:47;;;;;;;5.88;4.20;;;;;;;23.40;57.01;101264.38;4996928;28;20089;-65
2023/09/17 00:33:12;;;;;;;6.20;4.40;;;;;;;23.42;57.19;101266.91;4997157;28;20045;-65
2023/09/17 00:35:38;;;;;;;5.78;3.88;;;;;;;23.41;56.97;101262.56;4996811;28;20536;-66
2023/09/17 00:38:03;;;;;;;5.50;3.80;;;;;;;23.40;57.09;101263.53;4996771;28;20030;-64
2023/09/17 00:40:30;;;;;;;5.88;4.18;;;;;;;23.39;56.65;101265.38;4996429;28;20031;-65
2023/09/17 00:42:55;;;;;;;5.90;4.25;;;;;;;23.39;56.52;101260.03;4997150;28;20030;-65
2023/09/17 00:45:20;;;;;;;6.10;4.13;;;;;;;23.40;56.96;101258.22;4997140;28;20036;-64
2023/09/17 00:47:46;;;;;;;6.05;4.25;;;;;;;23.39;56.90;101256.56;4996723;28;20417;-66
2023/09/17 00:50:11;;;;;;;6.03;3.97;;;;;;;23.40;56.67;101253.75;4996745;28;20482;-64
2023/09/17 00:52:38;;;;;;;5.95;4.03;;;;;;;23.39;56.87;101246.75;4996805;28;20041;-65
2023/09/17 00:55:05;;;;;;;6.28;4.03;;;;;;;23.38;56.95;101253.03;4996267;28;20166;-65
2023/09/17 00:57:31;;;;;;;6.60;4.18;;;;;;;23.37;56.95;101238.09;4996825;28;20479;-64
2023/09/17 00:59:57;;;;;;;5.32;3.83;;;;;;;23.36;56.72;101234.56;4996661;28;20086;-67
2023/09/17 01:02:24;;;;;;;5.90;3.85;;;;;;;23.37;56.19;101238.09;4996870;28;20912;-64
2023/09/17 01:04:52;;;;;;;6.03;4.18;;;;;;;23.39;56.65;101240.59;4994947;28;20077;-66
2023/09/17 01:07:17;;;;;;;5.35;3.63;;;;;;;23.38;56.69;101236.25;4996150;28;20034;-65
2023/09/17 01:09:43;;;;;;;6.20;4.40;;;;;;;23.36;56.63;101231.09;4997036;28;20165;-66
2023/09/17 01:12:09;;;;;;;5.65;3.90;;;;;;;23.37;56.73;101230.13;4996212;28;20057;-66
2023/09/17 01:14:36;;;;;;;5.70;3.90;;;;;;;23.35;56.50;101238.25;4996793;28;20053;-64
2023/09/17 01:17:03;;;;;;;6.53;3.72;;;;;;;23.37;56.67;101230.13;4996448;28;20030;-65
2023/09/17 01:19:29;;;;;;;5.47;3.78;;;;;;;23.37;56.20;101230.13;4996308;28;20113;-66
2023/09/17 01:21:58;;;;;;;5.55;4.55;;;;;;;23.36;56.40;101225.78;4999298;28;20109;-65
2023/09/17 01:24:40;;;;;;;5.18;3.67;;;;;;;23.34;56.62;101222.44;5000102;28;20398;-64
2023/09/17 01:27:06;;;;;;;5.28;3.75;;;;;;;23.36;56.10;101223.94;5000353;28;20113;-63
2023/09/17 01:29:39;;;;;;;5.75;4.00;;;;;;;23.36;56.25;101218.63;5000092;28;20121;-64
2023/09/17 01:32:06;;;;;;;5.97;3.90;;;;;;;23.34;56.50;101217.13;5000097;28;20030;-63
2023/09/17 01:34:37;;;;;;;6.32;4.15;;;;;;;23.35;56.38;101210.78;4999911;28;20032;-66
2023/09/17 01:37:07;;;;;;;5.80;4.18;;;;;;;23.36;56.48;101223.94;5000469;28;20045;-65
2023/09/17 01:39:40;;;;;;;5.93;4.05;;;;;;;23.34;56.03;101217.13;5000101;28;20057;-64
2023/09/17 01:42:06;;;;;;;5.70;3.85;;;;;;;23.34;56.12;101209.97;5000671;28;20521;-65
2023/09/17 01:44:33;;;;;;;5.57;3.90;;;;;;;23.35;56.01;101202.81;5000212;28;20030;-63
2023/09/17 01:47:00;;;;;;;5.28;3.78;;;;;;;23.35;56.09;101202.81;4999658;28;20022;-66
2023/09/17 01:49:27;;;;;;;5.97;4.25;;;;;;;23.34;55.96;101198.50;5000100;28;20087;-63
2023/09/17 01:51:56;;;;;;;5.97;4.03;;;;;;;23.33;56.34;101192.31;5000013;28;20035;-63
2023/09/17 01:54:22;;;;;;;5.22;3.70;;;;;;;23.33;56.08;101191.50;5000183;28;20081;-64
2023/09/17 01:56:48;;;;;;;5.50;3.65;;;;;;;23.33;55.83;101191.50;4999624;28;20030;-65
2023/09/17 01:59:13;;;;;;;7.57;4.05;;;;;;;23.31;56.36;101188.16;5000223;28;20124;-65
2023/09/17 02:01:39;;;;;;;5.75;4.00;;;;;;;23.33;55.88;101188.84;4999496;28;20581;-64
2023/09/17 02:04:04;;;;;;;6.15;3.95;;;;;;;23.32;55.89;101188.00;5000085;28;20030;-64
2023/09/17 02:06:30;;;;;;;5.88;4.10;;;;;;;23.32;56.04;101185.34;4999861;28;20463;-64
2023/09/17 02:08:55;;;;;;;6.15;4.03;;;;;;;23.32;55.75;101190.66;4999608;28;20044;-64
2023/09/17 02:11:20;;;;;;;6.07;3.90;;;;;;;23.31;55.70;101193.47;4999054;28;20624;-65
2023/09/17 02:13:46;;;;;;;6.32;4.38;;;;;;;23.30;56.33;101194.47;4999587;28;20034;-64
2023/09/17 02:16:11;;;;;;;5.57;3.63;;;;;;;23.31;56.29;101204.94;4999407;28;20081;-64
2023/09/17 02:18:36;;;;;;;5.40;3.75;;;;;;;23.31;55.74;101194.31;4999500;28;20034;-64
2023/09/17 02:21:02;;;;;;;6.80;3.67;;;;;;;23.31;55.82;101193.47;4999194;28;20395;-64
2023/09/17 02:23:27;;;;;;;6.05;4.18;;;;;;;23.29;56.19;101192.78;4999465;28;20471;-64
2023/09/17 02:25:52;;;;;;;5.03;3.80;;;;;;;23.32;55.84;101188.00;4998865;28;20033;-65
2023/09/17 02:28:18;;;;;;;5.75;3.70;;;;;;;23.31;56.05;101182.84;4998997;28;20439;-65
2023/09/17 02:30:43;;;;;;;5.88;3.83;;;;;;;23.31;55.89;101178.34;4999143;28;20081;-64
2023/09/17 02:33:10;;;;;;;5.22;3.60;;;;;;;23.30;56.23;101174.00;4998648;28;20422;-65
2023/09/17 02:35:36;;;;;;;5.90;3.90;;;;;;;23.30;55.79;101178.50;4999437;28;20037;-63
2023/09/17 02:38:03;;;;;;;5.72;4.05;;;;;;;23.30;56.29;101173.19;4998934;28;20125;-65
2023/09/17 02:40:29;;;;;;;5.20;3.53;;;;;;;23.28;55.81;101170.69;4999074;28;20034;-65
2023/09/17 02:42:54;;;;;;;5.68;3.90;;;;;;;23.28;55.98;101164.53;4998668;28;20042;-63
2023/09/17 02:45:20;;;;;;;5.60;3.45;;;;;;;23.28;55.74;101159.22;4999252;28;20026;-64
2023/09/17 02:47:45;;;;;;;5.78;3.88;;;;;;;23.28;55.93;101156.56;4998739;28;20022;-64
2023/09/17 02:50:10;;;;;;;5.00;3.65;;;;;;;23.27;56.07;101152.22;4999496;28;20033;-64
2023/09/17 02:52:36;;;;;;;5.55;3.47;;;;;;;23.28;56.29;101148.56;4998463;28;20088;-63
2023/09/17 02:55:04;;;;;;;6.03;4.03;;;;;;;23.26;56.12;101153.22;4998749;28;20029;-64
2023/09/17 02:57:30;;;;;;;5.57;4.03;;;;;;;23.27;56.12;101146.91;4998621;28;20106;-65
2023/09/17 02:59:56;;;;;;;5.18;3.65;;;;;;;23.27;55.78;101152.22;4997864;28;20108;-65
2023/09/17 03:02:21;;;;;;;5.72;3.83;;;;;;;23.26;55.92;101151.38;4998709;28;20022;-64
2023/09/17 03:04:46;;;;;;;6.10;3.63;;;;;;;23.26;56.21;101153.22;4998908;28;20026;-64
2023/09/17 03:07:14;;;;;;;5.50;3.67;;;;;;;23.26;55.72;101150.56;4998652;28;20085;-64
2023/09/17 03:09:39;;;;;;;5.32;3.85;;;;;;;23.27;55.85;101154.88;4998512;28;20494;-65
2023/09/17 03:12:06;;;;;;;5.57;3.42;;;;;;;23.26;56.08;101142.59;4998165;28;20105;-66
2023/09/17 03:14:31;;;;;;;5.30;3.22;;;;;;;23.25;56.12;101140.91;4998213;28;20023;-64
2023/09/17 03:16:57;;;;;;;5.72;3.90;;;;;;;23.24;55.69;101144.53;4997891;28;20080;-65
2023/09/17 03:19:22;;;;;;;5.63;3.77;;;;;;;23.26;55.92;101146.06;4998586;28;20030;-64
2023/09/17 03:21:47;;;;;;;5.60;3.83;;;;;;;23.26;55.67;101151.38;4997912;28;20274;-65
2023/09/17 03:24:15;;;;;;;6.20;4.00;;;;;;;23.24;55.68;101149.84;4998291;28;20029;-66
2023/09/17 03:26:41;;;;;;;7.88;4.13;;;;;;;23.23;55.70;101149.03;4998015;28;20030;-66
2023/09/17 03:29:07;;;;;;;5.53;3.75;;;;;;;23.26;55.68;101153.22;4998110;28;20034;-66
2023/09/17 03:31:33;;;;;;;5.88;3.92;;;;;;;23.23;55.73;101149.03;4998223;28;20388;-65
2023/09/17 03:33:59;;;;;;;5.97;3.70;;;;;;;23.25;55.50;101149.69;4998162;28;20042;-64
2023/09/17 03:36:24;;;;;;;6.38;4.03;;;;;;;23.22;56.05;101142.03;4998068;28;20044;-66
2023/09/17 03:38:49;;;;;;;5.10;3.60;;;;;;;23.24;55.80;101141.88;4997694;28;20025;-63
2023/09/17 03:41:15;;;;;;;5.70;4.15;;;;;;;23.24;55.75;101149.84;4997895;28;20032;-65
2023/09/17 03:43:40;;;;;;;5.75;3.70;;;;;;;23.23;55.95;101149.03;4998075;28;20037;-64
2023/09/17 03:46:05;;;;;;;5.53;3.78;;;;;;;23.21;55.36;101145.69;4997875;28;20026;-64
2023/09/17 03:48:32;;;;;;;6.07;4.03;;;;;;;23.23;55.49;101148.19;4997846;28;20035;-64
2023/09/17 03:50:58;;;;;;;5.75;3.78;;;;;;;23.23;55.82;101146.38;4997948;28;20026;-66
2023/09/17 03:53:24;;;;;;;6.85;4.55;;;;;;;23.23;55.67;101151.69;4997386;28;20040;-66
2023/09/17 03:55:49;;;;;;;6.97;4.47;;;;;;;23.22;55.33;101143.84;4987983;28;20138;-66
2023/09/17 03:58:15;;;;;;;5.50;3.75;;;;;;;23.20;55.42;101144.00;4997061;28;20096;-65
2023/09/17 04:00:43;;;;;;;5.78;4.22;;;;;;;23.20;55.43;101144.00;4997789;28;20081;-64
2023/09/17 04:03:08;;;;;;;6.10;3.85;;;;;;;23.21;55.80;101144.84;4997723;28;20036;-64
2023/09/17 04:05:34;;;;;;;5.60;3.70;;;;;;;23.18;55.41;101146.81;4997493;28;20029;-66
2023/09/17 04:07:59;;;;;;;5.40;3.78;;;;;;;23.21;55.50;101143.03;4997494;28;20026;-64
2023/09/17 04:10:26;;;;;;;5.43;3.80;;;;;;;23.19;55.91;101145.00;4997290;28;20034;-65
2023/09/17 04:12:51;;;;;;;5.70;3.90;;;;;;;23.18;55.23;101136.19;4997108;28;20486;-65
2023/09/17 04:15:17;;;;;;;6.35;3.80;;;;;;;23.20;55.46;101145.84;4997256;28;20040;-65
2023/09/17 04:17:47;;;;;;;5.43;3.80;;;;;;;23.19;55.80;101139.66;4996750;28;20057;-64
2023/09/17 04:20:18;;;;;;;5.57;3.80;;;;;;;23.18;55.45;101144.16;4997014;28;20033;-64
2023/09/17 04:22:48;;;;;;;5.10;3.60;;;;;;;23.19;55.30;101145.00;4996829;28;20483;-64
2023/09/17 04:25:14;;;;;;;5.88;3.85;;;;;;;23.19;55.59;101145.00;4997127;28;20033;-63
2023/09/17 04:27:41;;;;;;;5.50;3.53;;;;;;;23.17;55.31;101134.50;4997012;28;20109;-66
2023/09/17 04:30:08;;;;;;;6.07;4.13;;;;;;;23.17;55.53;101142.47;4997058;28;20553;-64
2023/09/17 04:32:37;;;;;;;6.22;4.25;;;;;;;23.18;55.52;101138.00;4997064;28;20034;-65
2023/09/17 04:35:10;;;;;;;6.05;4.05;;;;;;;23.17;55.54;101133.69;4997241;28;20036;-65
2023/09/17 04:37:37;;;;;;;7.05;3.70;;;;;;;23.17;55.70;101137.16;4996427;28;20033;-64
2023/09/17 04:40:08;;;;;;;6.47;4.55;;;;;;;23.16;55.58;101132.84;4996989;28;20061;-63
2023/09/17 04:42:35;;;;;;;6.38;4.13;;;;;;;23.18;55.22;101135.34;4996872;28;20156;-63
2023/09/17 04:45:01;;;;;;;6.70;4.10;;;;;;;23.16;55.39;101132.84;4997223;28;20033;-65
2023/09/17 04:47:26;;;;;;;6.43;4.47;;;;;;;23.17;55.41;101139.81;4996875;28;20061;-66
2023/09/17 04:49:52;;;;;;;6.25;3.85;;;;;;;23.16;55.20;101135.50;4996849;28;20061;-63
2023/09/17 04:52:18;;;;;;;6.22;4.13;;;;;;;23.16;55.58;101132.84;4996617;28;20478;-66
2023/09/17 04:54:43;;;;;;;6.20;4.30;;;;;;;23.15;55.25;101123.19;4996345;28;20488;-65
2023/09/17 04:57:09;;;;;;;5.65;3.95;;;;;;;23.17;55.22;101125.69;4995627;28;20035;-65
2023/09/17 04:59:34;;;;;;;5.80;4.10;;;;;;;23.17;55.53;101131.03;4996880;28;20125;-65
2023/09/17 05:01:59;;;;;;;6.03;4.10;;;;;;;23.14;55.29;101124.16;4995896;28;20074;-64
2023/09/17 05:04:25;;;;;;;6.37;4.10;;;;;;;23.16;55.19;101132.84;4996782;28;20260;-64
2023/09/17 05:06:51;;;;;;;5.35;3.75;;;;;;;23.16;55.14;101139.97;4996738;28;20271;-64
2023/09/17 05:09:16;;;;;;;8.05;3.85;;;;;;;23.15;55.21;101125.84;4996513;28;20716;-63
2023/09/17 05:11:41;;;;;;;6.68;4.53;;;;;;;23.15;55.52;101135.66;4996773;28;20470;-66
2023/09/17 05:14:07;;;;;;;6.10;4.07;;;;;;;23.13;55.50;101135.81;4996690;28;20037;-64
2023/09/17 05:16:33;;;;;;;5.55;3.45;;;;;;;23.15;55.41;101139.13;4996348;28;20499;-66
2023/09/17 05:18:59;;;;;;;5.60;3.83;;;;;;;23.15;55.27;101138.31;4996271;28;20068;-65
2023/09/17 05:21:24;;;;;;;6.50;4.35;;;;;;;23.14;55.57;101139.28;4996258;28;20046;-64
2023/09/17 05:23:49;;;;;;;5.97;4.28;;;;;;;23.14;55.24;101134.81;4996477;28;20033;-64
2023/09/17 05:26:15;;;;;;;5.72;4.00;;;;;;;23.13;55.18;101138.47;4996862;28;20414;-64
2023/09/17 05:28:40;;;;;;;5.75;4.00;;;;;;;23.12;55.66;101135.97;4996457;28;20105;-65
2023/09/17 05:31:06;;;;;;;6.93;4.28;;;;;;;23.14;55.00;101141.94;4996511;28;20644;-63
2023/09/17 05:33:31;;;;;;;7.40;4.05;;;;;;;23.13;55.23;101141.13;4996114;28;20044;-64
2023/09/17 05:35:56;;;;;;;6.57;4.40;;;;;;;23.13;55.45;101141.13;4996535;28;20034;-65
2023/09/17 05:38:26;;;;;;;5.67;4.07;;;;;;;23.11;55.77;101143.06;4996219;28;20264;-65
2023/09/17 05:40:52;;;;;;;6.13;3.70;;;;;;;23.14;55.54;101147.28;4996389;28;20283;-64
2023/09/17 05:43:17;;;;;;;6.50;4.00;;;;;;;23.13;55.55;101146.44;4996030;28;20034;-64
2023/09/17 05:45:42;;;;;;;5.72;4.10;;;;;;;23.12;55.63;101143.94;4996477;28;20035;-63
2023/09/17 05:48:08;;;;;;;6.50;4.07;;;;;;;23.12;55.15;101141.28;4996524;28;20053;-64
2023/09/17 05:50:33;;;;;;;6.55;4.20;;;;;;;23.12;55.43;101139.44;4996014;28;20487;-64
2023/09/17 05:52:58;;;;;;;6.22;4.30;;;;;;;23.13;55.68;101143.78;4995907;28;20034;-63
2023/09/17 05:55:23;;;;;;;6.72;4.35;;;;;;;23.12;55.15;101141.28;4996296;28;20033;-63
2023/09/17 05:57:49;;;;;;;6.10;4.05;;;;;;;23.12;55.82;101142.09;4996019;28;20497;-64
2023/09/17 06:00:14;;;;;;;7.40;4.57;;;;;;;23.13;55.67;101134.94;4996168;28;20399;-63
2023/09/17 06:02:40;;;;;;;5.78;3.90;;;;;;;23.12;55.63;101136.78;4996105;28;20033;-65
2023/09/17 06:05:06;;;;;;;6.22;3.97;;;;;;;23.12;55.21;101142.09;4996280;28;20044;-63
2023/09/17 06:07:31;;;;;;;5.75;3.97;;;;;;;23.12;55.28;101135.97;4996343;28;20378;-64
2023/09/17 06:09:56;;;;;;;5.50;3.95;;;;;;;23.10;55.66;101136.09;4999632;28;20054;-63
2023/09/17 06:12:22;;;;;;;5.67;4.20;;;;;;;23.12;55.81;101146.59;4999691;28;20026;-64
2023/09/17 06:14:47;;;;;;;6.30;4.40;;;;;;;23.10;55.31;101146.75;4999626;28;20266;-65
2023/09/17 06:17:13;;;;;;;5.97;4.45;;;;;;;23.10;55.39;101138.75;4999385;28;20026;-64
2023/09/17 06:19:38;;;;;;;6.18;3.92;;;;;;;23.10;55.65;101141.41;4999212;28;20023;-64
2023/09/17 06:22:04;;;;;;;8.03;4.43;;;;;;;23.10;55.84;101144.09;4997887;28;20168;-65
2023/09/17 06:24:29;;;;;;;5.93;4.47;;;;;;;23.10;55.62;101146.75;4999352;28;20765;-65
2023/09/17 06:26:55;;;;;;;5.55;4.00;;;;;;;23.11;55.44;101144.91;4999450;28;20022;-66
2023/09/17 06:29:21;;;;;;;7.88;4.30;;;;;;;23.11;55.37;101148.41;4998617;28;20041;-65
2023/09/17 06:31:46;;;;;;;6.25;4.30;;;;;;;23.10;55.36;101146.75;4999006;28;20030;-65
2023/09/17 06:34:12;;;;;;;7.07;4.40;;;;;;;23.10;55.89;101141.41;4998116;28;20038;-64
2023/09/17 06:36:38;;;;;;;6.28;4.22;;;;;;;23.10;55.46;101149.41;4999412;28;20050;-64
2023/09/17 06:39:05;;;;;;;6.47;4.20;;;;;;;23.09;55.54;101147.72;4999128;28;20042;-65
2023/09/17 06:41:31;;;;;;;5.88;4.30;;;;;;;23.10;55.73;101151.22;4998971;28;20076;-65
2023/09/17 06:43:56;;;;;;;5.78;4.30;;;;;;;23.08;56.03;101142.53;4999221;28;20410;-64
2023/09/17 06:46:25;;;;;;;6.10;4.18;;;;;;;23.09;55.38;101145.06;4999046;28;20042;-67
2023/09/17 06:48:51;;;;;;;6.90;4.13;;;;;;;23.12;55.51;101144.75;4998438;28;20117;-66
2023/09/17 06:51:16;;;;;;;6.05;4.55;;;;;;;23.13;55.43;101143.78;4998629;28;20117;-66
2023/09/17 06:53:42;;;;;;;7.20;4.07;;;;;;;23.16;55.49;101140.81;5013731;28;20040;-66
2023/09/17 06:56:10;;;;;;;6.13;3.90;;;;;;;23.20;55.75;101137.88;4999203;28;21094;-64
2023/09/17 06:58:36;;;;;;;7.07;4.32;;;;;;;23.18;55.66;101141.50;4998565;28;20510;-64
2023/09/17 07:01:01;;;;;;;7.27;3.93;;;;;;;23.19;55.71;101139.66;4998833;28;20030;-65
2023/09/17 07:03:26;;;;;;;5.32;3.70;;;;;;;23.17;55.70;101145.13;4999070;28;20264;-64
2023/09/17 07:05:54;;;;;;;13.80;3.90;;;;;;;23.16;55.96;101146.16;4997534;28;20077;-65
2023/09/17 07:08:20;;;;;;;9.30;4.40;;;;;;;23.17;56.57;101153.09;4998625;28;20029;-65
2023/09/17 07:10:45;;;;;;;6.80;4.50;;;;;;;23.17;56.65;101149.63;4998240;28;20040;-65
2023/09/17 07:13:11;;;;;;;5.50;3.40;;;;;;;23.17;56.07;101146.97;4998319;28;20291;-64
2023/09/17 07:15:37;;;;;;;10.18;4.22;;;;;;;23.20;56.18;101148.50;4998096;28;20049;-63
2023/09/17 07:18:03;;;;;;;8.02;4.05;;;;;;;23.18;56.66;101138.00;4997467;28;20026;-65
2023/09/17 07:20:28;;;;;;;5.95;4.15;;;;;;;23.17;56.71;101139.81;5013050;28;20730;-65
2023/09/17 07:22:53;;;;;;;7.28;4.13;;;;;;;23.18;56.19;101141.50;4998148;28;20113;-64
2023/09/17 07:25:19;;;;;;;7.60;4.10;;;;;;;23.18;56.29;101138.84;4998175;28;20045;-65
2023/09/17 07:27:44;;;;;;;7.43;3.88;;;;;;;23.16;56.55;101127.53;4998221;28;20096;-65
2023/09/17 07:30:10;;;;;;;6.40;3.70;;;;;;;23.16;56.49;101127.53;4997676;28;20125;-64
2023/09/17 07:32:36;;;;;;;8.18;4.07;;;;;;;23.16;56.53;101124.88;4997778;28;20114;-66
2023/09/17 07:35:02;;;;;;;6.38;3.80;;;;;;;23.18;56.96;101130.03;4996458;28;20498;-66
2023/09/17 07:37:28;;;;;;;6.22;4.13;;;;;;;23.21;56.95;101123.56;4997794;28;20049;-65
2023/09/17 07:39:58;;;;;;;6.38;3.88;;;;;;;23.20;57.19;101128.06;4997783;28;20117;-65
2023/09/17 07:42:23;;;;;;;6.75;4.15;;;;;;;23.19;56.72;101131.69;4997938;28;20030;-64
2023/09/17 07:44:48;;;;;;;6.93;3.78;;;;;;;23.17;56.77;101134.50;4997508;28;20091;-65
2023/09/17 07:47:14;;;;;;;7.90;4.03;;;;;;;23.20;57.32;101132.56;4997991;28;20401;-65
2023/09/17 07:49:39;;;;;;;6.78;3.95;;;;;;;23.21;57.45;101128.88;4997658;28;20034;-65
2023/09/17 07:52:05;;;;;;;6.53;4.30;;;;;;;23.22;57.55;101133.22;4997677;28;20129;-64
2023/09/17 07:54:36;;;;;;;7.57;4.38;;;;;;;23.22;57.02;101133.22;4997650;28;20492;-64
2023/09/17 07:57:01;;;;;;;7.00;3.78;;;;;;;23.24;56.80;101141.88;4997642;28;20025;-66
2023/09/17 07:59:27;;;;;;;8.05;3.95;;;;;;;23.25;57.16;101143.56;4997299;28;20044;-66
2023/09/17 08:01:52;;;;;;;9.73;4.10;;;;;;;23.23;57.33;101148.19;4997529;28;20084;-68
2023/09/17 08:04:17;;;;;;;9.50;4.30;;;;;;;23.20;56.90;101146.66;4997538;28;20383;-67
2023/09/17 08:06:42;;;;;;;7.10;4.35;;;;;;;23.23;57.30;101156.19;4997511;28;20264;-66
2023/09/17 08:09:08;;;;;;;7.60;4.30;;;;;;;23.23;57.34;101157.00;4997118;28;20478;-66
2023/09/17 08:11:34;;;;;;;5.57;4.15;;;;;;;23.23;57.35;101150.88;4997247;28;20125;-66
2023/09/17 08:13:59;;;;;;;8.30;4.25;;;;;;;23.24;57.58;101160.50;4997465;28;20038;-66
2023/09/17 08:16:25;;;;;;;6.45;4.20;;;;;;;23.23;57.16;101161.50;4997407;28;20041;-65
2023/09/17 08:18:51;;;;;;;9.98;4.47;;;;;;;23.21;57.29;101161.66;4997233;28;20569;-65
2023/09/17 08:21:17;;;;;;;6.15;4.30;;;;;;;23.21;57.02;101160.78;4997096;28;20026;-66
2023/09/17 08:23:44;;;;;;;6.45;4.63;;;;;;;23.19;57.07;101160.94;4997261;28;20029;-65
2023/09/17 08:26:10;;;;;;;8.43;4.22;;;;;;;23.17;57.67;101161.09;4996815;28;20030;-67
2023/09/17 08:28:42;;;;;;;5.82;4.07;;;;;;;23.18;57.53;101167.25;4997425;28;20031;-66
2023/09/17 08:31:07;;;;;;;9.70;4.70;;;;;;;23.19;57.57;101160.94;4987324;28;20050;-67
2023/09/17 08:33:33;;;;;;;11.15;4.43;;;;;;;23.19;57.07;101166.25;4997510;28;20041;-64
2023/09/17 08:35:59;;;;;;;7.50;4.35;;;;;;;23.17;57.53;101166.41;4997235;28;20109;-70
2023/09/17 08:38:24;;;;;;;8.25;4.78;;;;;;;23.17;57.66;101161.09;4998121;28;20034;-67
2023/09/17 08:40:50;;;;;;;6.85;4.80;;;;;;;23.16;57.71;101159.44;4995998;28;20030;-65
2023/09/17 08:43:16;;;;;;;7.70;4.30;;;;;;;23.19;57.79;101155.63;4997208;28;20061;-67
2023/09/17 08:45:41;;;;;;;8.68;4.85;;;;;;;23.20;57.82;101164.44;4996677;28;20029;-67
2023/09/17 08:48:07;;;;;;;6.90;4.15;;;;;;;23.18;57.46;101162.78;4996443;28;20484;-65
2023/09/17 08:50:35;;;;;;;14.93;5.05;;;;;;;23.24;57.96;101168.47;4997038;28;20084;-67
2023/09/17 08:53:05;;;;;;;7.43;5.72;;;;;;;23.27;57.78;101170.81;4996974;28;20052;-67
2023/09/17 08:55:31;;;;;;;10.68;5.20;;;;;;;23.30;57.87;101171.34;4997028;28;20406;-66
2023/09/17 08:58:11;;;;;;;9.82;5.97;;;;;;;23.31;58.10;101175.69;4996769;28;20463;-66
2023/09/17 09:00:39;;;;;;;8.15;5.20;;;;;;;23.35;57.70;101181.53;4997549;28;20029;-67
2023/09/17 09:03:07;;;;;;;10.45;5.35;;;;;;;23.36;57.91;101186.72;4996506;28;20037;-66
2023/09/17 09:05:35;;;;;;;6.82;5.35;;;;;;;23.38;57.90;101186.56;4996650;28;20952;-68
2023/09/17 09:08:01;;;;;;;7.38;5.28;;;;;;;23.38;57.92;101186.56;4996334;28;20022;-67
2023/09/17 09:10:26;;;;;;;7.55;6.00;;;;;;;23.39;57.77;101182.09;4995078;28;20026;-65
2023/09/17 09:12:52;;;;;;;9.18;5.72;;;;;;;23.40;58.15;101189.91;4996962;28;20069;-69
2023/09/17 09:15:18;;;;;;;10.00;6.15;;;;;;;23.40;58.07;101197.91;4996537;28;20479;-67
2023/09/17 09:17:43;;;;;;;9.88;5.72;;;;;;;23.42;57.75;101200.41;4996549;28;20034;-69
2023/09/17 09:20:11;;;;;;;9.43;6.05;;;;;;;23.42;57.73;101206.56;4996998;28;20100;-68
2023/09/17 09:22:40;;;;;;;9.68;6.72;;;;;;;23.41;58.03;101196.91;4996894;28;20030;-68
2023/09/17 09:25:08;;;;;;;10.63;6.05;;;;;;;23.38;58.11;101191.03;4996347;28;20030;-69
2023/09/17 09:27:34;;;;;;;9.50;5.68;;;;;;;23.33;58.25;101192.31;4995042;28;20053;-69
2023/09/17 09:29:59;;;;;;;7.93;6.00;;;;;;;23.34;57.92;101204.66;4993666;28;20511;-68
2023/09/17 09:32:25;;;;;;;14.05;5.90;;;;;;;23.34;58.18;101195.84;4996214;28;20048;-68
2023/09/17 09:34:51;;;;;;;9.68;6.35;;;;;;;23.37;57.92;101184.91;4996529;28;20398;-67
2023/09/17 09:37:23;;;;;;;10.20;6.40;;;;;;;23.38;58.15;101181.22;4996355;28;20065;-67
2023/09/17 09:39:48;;;;;;;9.52;6.43;;;;;;;23.40;57.89;101181.94;4994209;28;20531;-67
2023/09/17 09:42:14;;;;;;;10.48;6.35;;;;;;;23.30;58.64;101183.81;4998792;28;20038;-66
2023/09/17 09:44:40;;;;;;;10.35;6.55;;;;;;;23.22;58.98;101173.09;4999547;28;20401;-66
2023/09/17 09:47:06;;;;;;;8.68;6.03;;;;;;;23.21;58.64;101184.72;4998354;28;20112;-67
2023/09/17 09:49:50;;;;;;;10.88;6.30;;;;;;;23.16;59.14;101179.84;4998678;28;20022;-67
2023/09/17 09:52:16;;;;;;;10.10;6.55;;;;;;;23.15;59.00;101186.16;4998140;28;20037;-66
2023/09/17 09:54:44;;;;;;;9.95;6.38;;;;;;;23.12;59.17;101181.16;4999270;28;20059;-66
2023/09/17 09:57:13;;;;;;;9.82;6.65;;;;;;;23.10;59.44;101181.31;4998483;28;20309;-68
2023/09/17 09:59:42;;;;;;;10.05;6.97;;;;;;;23.10;59.45;101183.97;4996983;28;20105;-67
2023/09/17 10:02:11;;;;;;;13.27;7.68;;;;;;;23.08;59.77;101180.63;4997838;28;20471;-67
2023/09/17 10:04:39;;;;;;;8.95;6.32;;;;;;;23.08;59.80;101179.75;4999026;28;20030;-66
2023/09/17 10:07:07;;;;;;;9.77;6.85;;;;;;;23.09;60.01;101173.47;4997851;28;20056;-67
2023/09/17 10:09:33;;;;;;;11.18;7.10;;;;;;;23.09;59.59;101174.28;4999181;28;20056;-71
2023/09/17 10:11:58;;;;;;;10.00;7.00;;;;;;;23.11;60.08;101168.84;4998770;28;20474;-65
2023/09/17 10:14:25;;;;;;;10.98;6.80;;;;;;;23.16;59.51;101169.22;4998858;28;20077;-65
2023/09/17 10:16:52;;;;;;;11.43;7.25;;;;;;;23.23;59.63;101162.31;4999212;28;20038;-67
2023/09/17 10:19:20;;;;;;;9.85;6.88;;;;;;;23.34;59.35;101167.41;4996622;28;20064;-68
2023/09/17 10:21:49;;;;;;;9.48;6.53;;;;;;;23.42;59.01;101173.81;4996384;28;20399;-68
2023/09/17 10:24:17;;;;;;;8.68;6.47;;;;;;;23.47;58.76;101167.03;4998306;28;20054;-68
2023/09/17 10:26:43;;;;;;;10.13;7.00;;;;;;;23.50;58.63;101160.59;4999917;28;20034;-70
2023/09/17 10:29:14;;;;;;;12.80;6.72;;;;;;;23.49;58.27;101162.38;4997121;28;20033;-67
2023/09/17 10:31:42;;;;;;;10.07;7.13;;;;;;;23.49;58.41;101166.88;4999895;28;20049;-69
2023/09/17 10:34:12;;;;;;;10.43;6.63;;;;;;;23.46;58.89;101162.69;4997247;28;20042;-69
2023/09/17 10:36:38;;;;;;;10.82;6.20;;;;;;;23.46;58.84;101167.19;4999168;28;20478;-66
2023/09/17 10:39:07;;;;;;;11.10;6.50;;;;;;;23.44;58.92;101161.19;4998852;28;20109;-67
2023/09/17 10:41:36;;;;;;;11.77;6.68;;;;;;;23.45;59.08;101162.84;4999313;28;20022;-66
2023/09/17 10:44:03;;;;;;;9.98;6.85;;;;;;;23.47;59.44;101160.88;4998009;28;20066;-67
2023/09/17 10:46:31;;;;;;;10.63;6.53;;;;;;;23.44;59.52;101154.03;4999011;28;20033;-69
2023/09/17 10:48:58;;;;;;;12.10;6.55;;;;;;;23.46;59.48;101157.38;4998449;28;20117;-67
2023/09/17 10:51:24;;;;;;;9.50;7.35;;;;;;;23.46;60.00;101151.22;4998866;28;20054;-66
2023/09/17 10:53:50;;;;;;;10.10;7.10;;;;;;;23.47;59.98;101152.91;4997808;28;20117;-67
2023/09/17 10:56:15;;;;;;;9.93;7.22;;;;;;;23.46;60.11;101149.41;4993157;28;20148;-70
2023/09/17 10:58:44;;;;;;;12.82;7.03;;;;;;;23.43;60.25;101149.72;4996836;28;20046;-68
2023/09/17 11:01:14;;;;;;;11.27;6.78;;;;;;;23.44;60.24;101145.22;4996831;28;20033;-69
2023/09/17 11:03:44;;;;;;;13.02;7.75;;;;;;;23.39;60.75;101151.00;4997198;28;20031;-69
2023/09/17 11:06:16;;;;;;;13.18;8.00;;;;;;;23.39;60.68;101153.66;4997833;28;20372;-66
2023/09/17 11:08:46;;;;;;;10.98;7.70;;;;;;;23.40;60.29;101151.84;4997856;28;20064;-67
2023/09/17 11:11:14;;;;;;;11.35;7.10;;;;;;;23.39;60.73;101156.31;4997983;28;20104;-69
2023/09/17 11:13:40;;;;;;;12.98;7.35;;;;;;;23.35;60.78;101153.16;4996972;28;20034;-68
2023/09/17 11:16:07;;;;;;;10.07;6.80;;;;;;;23.35;61.04;101161.13;4995980;28;20458;-69
2023/09/17 11:18:33;;;;;;;9.93;6.53;;;;;;;23.37;60.43;101158.31;4985843;28;20058;-69
2023/09/17 11:21:06;;;;;;;8.35;5.63;;;;;;;23.35;60.51;101155.81;4996686;28;20462;-69